Time;durP1;ratioP1;P1;durP2;ratioP2;P2;SDS_P1;SDS_P2;PMS_P1;PMS_P2;Temp;Humidity;BMP_temperature;BMP_pressure;BME280_temperature;BME280_humidity;BME280_pressure;Samples;Min_cycle;Max_cycle;Signal;HPM_P1;HPM_P2
2023/07/12 00:00:59;;;;;;;24.67;17.10;;;15.00;99.90;14.40;100264;;;;563045;254;24174;-82
2023/07/12 00:03:30;;;;;;;22.80;16.17;;;15.00;99.90;14.40;100267;;;;553973;255;24110;-82
2023/07/12 00:05:55;;;;;;;26.10;17.20;;;14.90;99.90;14.40;100269;;;;560929;248;24133;-82
2023/07/12 00:08:26;;;;;;;22.13;16.67;;;14.90;99.90;14.40;100258;;;;581031;247;24104;-82
2023/07/12 00:10:55;;;;;;;21.60;16.20;;;14.90;99.90;14.40;100259;;;;572032;247;24050;-82
2023/07/12 00:13:19;;;;;;;22.37;16.50;;;14.90;99.90;14.40;100260;;;;553911;254;24141;-83
2023/07/12 00:15:47;;;;;;;21.17;14.73;;;14.90;99.90;14.40;100265;;;;564107;250;24152;-82
2023/07/12 00:18:15;;;;;;;22.13;16.17;;;14.90;99.90;14.40;100256;;;;571842;247;24290;-81
2023/07/12 00:20:43;;;;;;;20.73;15.93;;;14.90;99.90;14.40;100252;;;;561405;252;24130;-82
2023/07/12 00:23:14;;;;;;;27.37;24.03;;;14.90;99.90;14.40;100247;;;;566798;247;44830;-81
2023/07/12 00:25:43;;;;;;;22.93;19.23;;;14.90;99.90;14.40;100243;;;;571673;247;24108;-81
2023/07/12 00:28:28;;;;;;;25.80;17.93;;;14.90;99.90;14.40;100242;;;;553996;255;24159;-82
2023/07/12 00:31:00;;;;;;;23.33;17.57;;;14.90;99.90;14.40;100242;;;;560747;252;24141;-82
2023/07/12 00:33:24;;;;;;;21.20;16.50;;;14.90;99.90;14.40;100257;;;;571370;247;24146;-82
2023/07/12 00:35:52;;;;;;;21.37;16.63;;;14.90;99.90;14.40;100265;;;;572399;247;24069;-84
2023/07/12 00:38:20;;;;;;;22.67;16.40;;;14.90;99.90;14.30;100260;;;;564918;250;24115;-82
2023/07/12 00:40:58;;;;;;;22.13;16.83;;;14.90;99.90;14.40;100262;;;;560544;252;24139;-82
2023/07/12 00:43:43;;;;;;;20.83;17.00;;;14.90;99.90;14.40;100258;;;;571306;247;24077;-82
2023/07/12 00:46:37;;;;;;;18.67;15.33;;;14.90;99.90;14.30;100248;;;;562678;249;24122;-82
2023/07/12 00:49:05;;;;;;;20.63;15.77;;;14.90;99.90;14.30;100231;;;;561924;252;24124;-81
2023/07/12 00:52:03;;;;;;;22.77;15.70;;;14.90;99.90;14.30;100223;;;;563717;250;24169;-82
2023/07/12 00:55:01;;;;;;;20.63;14.77;;;14.90;99.90;14.30;100216;;;;571449;247;24070;-83
2023/07/12 00:57:31;;;;;;;21.67;15.87;;;14.90;99.90;14.30;100200;;;;571292;247;24060;-83
2023/07/12 01:00:10;;;;;;;17.97;14.40;;;14.90;99.90;14.30;100194;;;;580066;247;24154;-82
2023/07/12 01:02:39;;;;;;;17.90;14.73;;;14.90;99.90;14.40;100184;;;;571334;247;24137;-82
2023/07/12 01:05:07;;;;;;;19.57;15.53;;;14.90;99.90;14.40;100184;;;;572671;246;24066;-83
2023/07/12 01:07:35;;;;;;;23.47;20.03;;;14.90;99.90;14.40;100175;;;;567664;247;35200;-82
2023/07/12 01:10:06;;;;;;;22.90;19.27;;;14.90;99.90;14.40;100161;;;;572653;247;25114;-83
2023/07/12 01:12:31;;;;;;;21.30;15.83;;;14.90;99.90;14.40;100156;;;;569614;252;24181;-81
2023/07/12 01:15:03;;;;;;;22.57;16.47;;;14.90;99.90;14.40;100155;;;;572084;245;24086;-83
2023/07/12 01:17:31;;;;;;;18.87;14.53;;;14.90;99.90;14.40;100154;;;;571758;247;24133;-82
2023/07/12 01:19:57;;;;;;;22.87;16.83;;;14.90;99.90;14.40;100146;;;;571760;245;24198;-81
2023/07/12 01:22:25;;;;;;;24.03;18.57;;;14.90;99.90;14.40;100137;;;;561280;252;24196;-81
2023/07/12 01:24:54;;;;;;;21.17;16.23;;;14.90;99.90;14.40;100142;;;;571920;247;24071;-81
2023/07/12 01:27:24;;;;;;;23.27;15.93;;;14.90;99.90;14.40;100136;;;;571905;247;24092;-83
2023/07/12 01:29:57;;;;;;;21.73;15.87;;;14.90;99.90;14.40;100130;;;;571960;247;24079;-83
2023/07/12 01:32:21;;;;;;;17.43;14.87;;;14.90;99.90;14.40;100119;;;;560913;252;25174;-82
2023/07/12 01:34:54;;;;;;;18.03;14.43;;;14.90;99.90;14.30;100124;;;;572028;247;24189;-82
2023/07/12 01:37:18;;;;;;;20.00;13.77;;;14.80;99.90;14.30;100121;;;;560919;252;24158;-80
2023/07/12 01:39:46;;;;;;;16.93;14.13;;;14.90;99.90;14.30;100130;;;;581540;247;24120;-82
2023/07/12 01:42:14;;;;;;;18.67;14.27;;;14.90;99.90;14.30;100126;;;;571731;247;24097;-80
2023/07/12 01:44:45;;;;;;;17.60;13.80;;;14.90;99.90;14.20;100126;;;;571430;247;24078;-82
2023/07/12 01:47:10;;;;;;;18.10;14.07;;;14.80;99.90;14.20;100127;;;;571283;247;24055;-84
2023/07/12 01:49:38;;;;;;;23.90;21.33;;;14.80;99.90;14.20;100127;;;;556084;252;45860;-83
2023/07/12 01:52:06;;;;;;;21.57;17.27;;;14.80;99.90;14.20;100128;;;;572154;246;24148;-82
2023/07/12 01:54:34;;;;;;;19.63;14.63;;;14.70;99.90;14.10;100132;;;;571575;246;24082;-82
2023/07/12 01:57:06;;;;;;;18.00;13.93;;;14.70;99.90;14.10;100123;;;;560475;252;24132;-80
2023/07/12 01:59:31;;;;;;;17.50;13.60;;;14.60;99.90;14.10;100117;;;;570823;247;24095;-81
2023/07/12 02:02:01;;;;;;;21.07;14.10;;;14.60;99.90;14.10;100127;;;;571526;247;24114;-81
2023/07/12 02:04:27;;;;;;;19.30;14.07;;;14.60;99.90;14.10;100126;;;;580468;247;24059;-81
2023/07/12 02:06:59;;;;;;;18.00;12.80;;;14.60;99.90;14.10;100140;;;;571399;247;24081;-82
2023/07/12 02:09:24;;;;;;;19.23;14.50;;;14.60;99.90;14.10;100147;;;;579652;247;24103;-80
2023/07/12 02:11:52;;;;;;;22.27;15.77;;;14.60;99.90;14.10;100150;;;;571898;247;24160;-79
2023/07/12 02:14:20;;;;;;;20.67;13.67;;;14.60;99.90;14.10;100146;;;;571422;246;24073;-80
2023/07/12 02:16:48;;;;;;;21.30;15.40;;;14.60;99.90;14.10;100139;;;;572459;246;24089;-81
2023/07/12 02:19:15;;;;;;;18.53;13.97;;;14.60;99.90;14.10;100148;;;;572580;247;24071;-80
2023/07/12 02:21:43;;;;;;;18.07;13.67;;;14.60;99.90;14.10;100144;;;;572712;247;24063;-81
2023/07/12 02:24:11;;;;;;;20.40;14.10;;;14.60;99.90;14.10;100146;;;;573180;247;24054;-81
2023/07/12 02:26:41;;;;;;;16.53;12.73;;;14.70;99.90;14.20;100154;;;;581498;247;24081;-81
2023/07/12 02:29:12;;;;;;;16.73;13.07;;;14.70;99.90;14.20;100156;;;;580937;247;24062;-84
2023/07/12 02:31:35;;;;;;;23.10;13.33;;;14.70;99.90;14.20;100157;;;;571499;247;24123;-82
2023/07/12 02:34:04;;;;;;;17.33;12.07;;;14.80;99.90;14.20;100144;;;;581159;241;24055;-80
2023/07/12 02:36:32;;;;;;;17.83;13.53;;;14.70;99.90;14.30;100132;;;;572110;246;24078;-78
2023/07/12 02:39:06;;;;;;;15.90;12.27;;;14.80;99.90;14.30;100120;;;;580796;247;24065;-81
2023/07/12 02:41:30;;;;;;;16.87;11.63;;;14.80;99.90;14.30;100113;;;;572743;246;24071;-79
2023/07/12 02:43:59;;;;;;;13.10;11.50;;;14.90;99.90;14.40;100102;;;;561987;252;24156;-82
2023/07/12 02:46:27;;;;;;;14.37;11.93;;;14.90;99.90;14.50;100101;;;;569504;241;24042;-82
2023/07/12 02:48:58;;;;;;;16.13;12.50;;;15.00;99.90;14.60;100100;;;;571704;247;24080;-86
2023/07/12 02:51:29;;;;;;;15.83;12.07;;;15.00;99.90;14.60;100096;;;;571922;247;24127;-81
2023/07/12 02:53:57;;;;;;;17.60;13.20;;;15.10;99.90;14.70;100090;;;;560880;252;24120;-83
2023/07/12 02:56:27;;;;;;;15.13;12.77;;;15.20;99.90;14.80;100083;;;;581550;247;24062;-82
2023/07/12 02:58:55;;;;;;;18.63;13.77;;;15.20;99.90;14.80;100084;;;;571745;247;24069;-80
2023/07/12 03:01:24;;;;;;;14.87;12.83;;;15.30;99.90;14.90;100070;;;;571961;247;24058;-80
2023/07/12 03:03:51;;;;;;;14.53;12.13;;;15.40;99.90;15.00;100061;;;;571624;247;24066;-82
2023/07/12 03:06:20;;;;;;;20.33;13.47;;;15.60;99.90;15.10;100060;;;;560922;252;24148;-82
2023/07/12 03:08:48;;;;;;;24.33;14.27;;;15.50;99.90;15.20;100058;;;;572061;247;24106;-81
2023/07/12 03:11:16;;;;;;;17.90;13.30;;;15.60;99.90;15.30;100056;;;;571843;247;24067;-82
2023/07/12 03:13:47;;;;;;;19.43;13.10;;;15.70;99.90;15.40;100048;;;;571761;246;25159;-81
2023/07/12 03:16:18;;;;;;;17.53;12.63;;;15.80;99.90;15.50;100047;;;;571856;247;24062;-81
2023/07/12 03:18:43;;;;;;;19.83;14.20;;;15.90;99.90;15.60;100044;;;;569170;248;23182;-81
2023/07/12 03:21:11;;;;;;;15.13;12.97;;;16.00;99.90;15.70;100046;;;;571708;246;24146;-80
2023/07/12 03:23:41;;;;;;;20.70;13.30;;;16.10;99.90;15.80;100055;;;;569656;248;24146;-80
2023/07/12 03:26:06;;;;;;;16.60;14.20;;;16.20;99.90;15.90;100055;;;;580395;247;24067;-81
2023/07/12 03:28:34;;;;;;;20.00;15.10;;;16.40;99.90;16.20;100051;;;;572771;247;24050;-81
2023/07/12 03:31:05;;;;;;;16.53;14.27;;;16.60;99.90;16.70;100044;;;;572901;247;24104;-81
2023/07/12 03:33:37;;;;;;;19.70;15.33;;;17.00;99.90;17.30;100037;;;;572476;247;24132;-80
2023/07/12 03:36:05;;;;;;;16.67;13.63;;;17.60;99.90;17.80;100033;;;;561261;252;24116;-81
2023/07/12 03:38:30;;;;;;;15.53;13.93;;;18.00;99.90;18.30;100038;;;;571924;247;24124;-81
2023/07/12 03:40:57;;;;;;;16.23;14.27;;;18.50;99.90;18.70;100032;;;;572302;247;24047;-81
2023/07/12 03:43:28;;;;;;;21.37;14.60;;;19.00;99.90;19.10;100027;;;;569170;247;24077;-81
2023/07/12 03:45:56;;;;;;;14.30;12.87;;;19.40;99.90;19.60;100018;;;;571977;245;23088;-83
2023/07/12 03:48:25;;;;;;;13.50;12.10;;;19.90;99.90;20.00;100020;;;;572100;247;24157;-81
2023/07/12 03:50:49;;;;;;;16.17;12.67;;;20.40;99.90;20.30;100012;;;;580619;247;24063;-81
2023/07/12 03:53:20;;;;;;;11.93;10.77;;;20.80;99.90;20.60;100017;;;;580811;241;24043;-81
2023/07/12 03:55:45;;;;;;;11.60;10.47;;;21.10;99.90;20.80;100015;;;;571716;246;24117;-81
2023/07/12 03:58:13;;;;;;;10.33;9.37;;;21.40;99.90;21.30;100024;;;;554458;253;24097;-81
2023/07/12 04:00:41;;;;;;;14.93;9.20;;;21.80;99.90;21.90;100032;;;;554015;255;24124;-82
2023/07/12 04:03:09;;;;;;;9.60;8.60;;;22.40;99.90;22.50;100038;;;;561967;255;24096;-81
2023/07/12 04:05:43;;;;;;;9.13;8.33;;;23.00;99.90;23.30;100045;;;;563811;250;24133;-83
2023/07/12 04:08:08;;;;;;;8.30;7.50;;;23.80;99.90;24.00;100032;;;;571217;247;24071;-81
2023/07/12 04:10:40;;;;;;;8.40;7.60;;;25.10;99.90;24.50;100027;;;;571557;247;23076;-81
2023/07/12 04:13:04;;;;;;;13.47;7.07;;;25.00;99.90;25.10;100016;;;;571235;247;24099;-80
2023/07/12 04:15:33;;;;;;;8.13;7.33;;;26.20;99.90;25.60;100006;;;;571917;247;24111;-80
2023/07/12 04:18:02;;;;;;;8.13;7.43;;;26.20;99.90;26.20;100001;;;;571834;246;23092;-80
2023/07/12 04:20:32;;;;;;;8.70;7.17;;;26.80;99.90;26.80;99993;;;;571812;246;23078;-80
2023/07/12 04:23:00;;;;;;;8.37;7.57;;;27.50;99.90;27.40;99992;;;;571672;247;24083;-82
2023/07/12 04:25:27;;;;;;;6.65;6.05;;;28.10;99.90;28.00;99997;;;;560692;252;23139;-81
2023/07/12 04:27:53;;;;;;;6.95;6.37;;;28.70;99.90;28.70;100001;;;;571516;246;23095;-82
2023/07/12 04:30:21;;;;;;;7.43;6.05;;;29.30;99.90;29.10;100013;;;;571917;246;23077;-81
2023/07/12 04:32:52;;;;;;;7.35;6.65;;;29.90;99.90;29.70;100015;;;;553888;255;23107;-80
2023/07/12 04:35:20;;;;;;;7.45;6.70;;;31.00;97.80;30.20;100014;;;;554188;254;23156;-82
2023/07/12 04:37:45;;;;;;;6.90;6.22;;;31.00;97.70;30.80;100012;;;;562054;252;23167;-81
2023/07/12 04:40:16;;;;;;;6.62;5.90;;;31.70;96.20;31.50;100015;;;;573967;247;23160;-83
2023/07/12 04:42:45;;;;;;;6.65;6.07;;;32.40;94.90;32.10;100009;;;;573490;247;23071;-84
2023/07/12 04:45:13;;;;;;;6.72;6.07;;;33.10;93.40;33.00;99995;;;;572576;247;23091;-83
2023/07/12 04:47:43;;;;;;;6.28;5.82;;;34.00;90.70;33.70;99975;;;;562224;252;23176;-84
2023/07/12 04:50:11;;;;;;;6.40;5.90;;;34.70;83.80;34.10;99976;;;;581307;247;23082;-83
2023/07/12 04:52:40;;;;;;;6.07;5.68;;;35.40;74.30;34.10;99970;;;;564984;249;23163;-84
2023/07/12 04:55:05;;;;;;;6.87;6.22;;;35.60;72.90;34.40;99976;;;;573384;245;24185;-83
2023/07/12 04:57:33;;;;;;;8.10;6.18;;;35.60;72.90;34.70;99980;;;;563670;250;24166;-83
2023/07/12 05:00:04;;;;;;;6.85;6.32;;;36.00;72.30;35.20;99985;;;;572805;246;23081;-84
2023/07/12 05:02:32;;;;;;;6.68;5.50;;;36.50;68.70;35.20;99995;;;;581062;247;24097;-83
2023/07/12 05:05:01;;;;;;;6.85;6.25;;;36.60;68.00;35.40;99991;;;;580991;241;23077;-81
2023/07/12 05:07:31;;;;;;;7.20;6.57;;;36.80;67.30;35.60;99988;;;;572286;247;23082;-82
2023/07/12 05:09:58;;;;;;;6.50;6.03;;;36.80;67.20;35.80;99991;;;;561219;252;24131;-84
2023/07/12 05:12:23;;;;;;;6.62;6.12;;;36.80;64.10;35.60;100001;;;;571748;247;23132;-83
2023/07/12 05:14:54;;;;;;;6.28;5.80;;;36.80;64.10;35.70;99989;;;;572047;246;23061;-84
2023/07/12 05:17:19;;;;;;;6.85;6.05;;;36.80;63.20;36.00;99990;;;;571369;247;23090;-83
2023/07/12 05:19:47;;;;;;;7.68;6.95;;;37.00;63.20;36.30;99988;;;;561001;252;24171;-83
2023/07/12 05:22:15;;;;;;;7.28;6.22;;;37.20;62.90;36.80;99990;;;;571698;247;23087;-84
2023/07/12 05:24:42;;;;;;;6.53;5.93;;;37.80;61.00;37.20;99984;;;;572988;247;23147;-81
2023/07/12 05:27:14;;;;;;;6.05;5.55;;;38.60;58.90;37.60;99994;;;;572904;247;23075;-83
2023/07/12 05:29:42;;;;;;;6.72;6.03;;;38.50;58.80;37.60;99994;;;;570101;247;23151;-83
2023/07/12 05:32:10;;;;;;;6.85;6.10;;;38.50;58.70;37.80;100001;;;;572748;246;23103;-84
2023/07/12 05:34:39;;;;;;;9.73;6.30;;;38.70;57.40;37.90;99989;;;;572571;247;23072;-82
2023/07/12 05:37:06;;;;;;;6.87;5.95;;;38.80;57.40;38.30;99997;;;;572625;247;23127;-84
2023/07/12 05:39:37;;;;;;;7.10;5.72;;;39.10;57.30;38.90;99995;;;;582221;247;24151;-84
2023/07/12 05:42:05;;;;;;;6.07;5.68;;;39.60;55.70;39.60;99995;;;;561713;252;23150;-85
2023/07/12 05:44:29;;;;;;;5.80;5.22;;;40.30;54.60;40.50;99992;;;;571731;247;23073;-84
2023/07/12 05:46:57;;;;;;;10.05;6.00;;;41.10;53.90;41.30;99981;;;;567131;247;35195;-84
2023/07/12 05:49:26;;;;;;;6.85;6.12;;;42.40;50.10;41.70;99978;;;;571937;246;23167;-83
2023/07/12 05:51:57;;;;;;;9.48;6.10;;;42.40;50.00;41.70;99972;;;;573372;247;23090;-83
2023/07/12 05:54:26;;;;;;;6.45;5.90;;;42.60;50.90;42.10;99973;;;;574125;247;23064;-83
2023/07/12 05:56:53;;;;;;;6.45;5.60;;;42.90;50.00;42.70;99970;;;;573658;245;24105;-84
2023/07/12 05:59:18;;;;;;;7.18;6.15;;;43.40;48.70;43.10;99960;;;;582288;246;23095;-85
2023/07/12 06:01:46;;;;;;;7.12;6.50;;;43.70;48.50;43.10;99964;;;;573257;246;23077;-82
2023/07/12 06:04:14;;;;;;;7.70;5.95;;;43.70;48.20;42.80;99966;;;;573700;247;23096;-83
2023/07/12 06:06:46;;;;;;;8.18;7.18;;;43.70;47.50;42.80;99956;;;;573595;247;23060;-84
2023/07/12 06:09:13;;;;;;;6.55;6.05;;;43.60;47.80;43.40;99957;;;;573302;247;23145;-86
2023/07/12 06:11:41;;;;;;;10.23;6.22;;;44.00;47.00;43.60;99955;;;;562254;251;23140;-84
2023/07/12 06:14:09;;;;;;;9.20;8.07;;;44.20;46.80;43.50;99951;;;;573036;247;23087;-85
2023/07/12 06:16:38;;;;;;;10.82;6.78;;;44.20;46.40;43.30;99948;;;;572456;247;23110;-83
2023/07/12 06:19:05;;;;;;;9.55;6.95;;;44.20;46.00;43.50;99944;;;;571705;247;23131;-85
2023/07/12 06:21:35;;;;;;;7.65;6.55;;;44.30;46.10;43.50;99941;;;;572385;247;24089;-83
2023/07/12 06:24:04;;;;;;;6.85;5.50;;;44.40;45.50;43.80;99951;;;;572782;245;24096;-83
2023/07/12 06:26:32;;;;;;;7.05;6.20;;;44.50;45.90;44.50;99952;;;;561557;252;23127;-83
2023/07/12 06:28:58;;;;;;;7.37;5.93;;;45.10;45.10;44.90;99954;;;;572761;246;23087;-84
2023/07/12 06:31:31;;;;;;;6.60;6.07;;;45.40;44.30;44.70;99957;;;;580936;247;23069;-84
2023/07/12 06:33:56;;;;;;;7.47;5.62;;;45.40;44.40;44.70;99956;;;;572462;247;23105;-84
2023/07/12 06:36:30;;;;;;;5.90;5.12;;;45.50;44.20;45.30;99956;;;;561786;252;23189;-84
2023/07/12 06:38:58;;;;;;;8.02;5.68;;;45.80;43.90;45.60;99952;;;;571970;247;23144;-85
2023/07/12 06:41:26;;;;;;;5.87;5.28;;;46.00;43.40;45.30;99946;;;;580971;247;23138;-83
2023/07/12 06:43:51;;;;;;;7.72;5.47;;;46.10;43.00;44.60;99943;;;;572151;247;23165;-84
2023/07/12 06:46:22;;;;;;;7.40;5.45;;;45.50;42.70;44.40;99948;;;;562162;252;23114;-84
2023/07/12 06:48:47;;;;;;;7.37;5.25;;;45.10;43.20;44.20;99942;;;;572285;247;23070;-84
2023/07/12 06:51:20;;;;;;;5.82;5.37;;;44.90;43.50;43.70;99941;;;;572741;247;23105;-84
2023/07/12 06:53:48;;;;;;;6.28;5.47;;;44.40;43.80;43.10;99933;;;;580531;247;23132;-84
2023/07/12 06:56:13;;;;;;;7.43;5.30;;;43.90;44.60;42.70;99939;;;;572349;247;23206;-84
2023/07/12 06:58:41;;;;;;;7.35;5.25;;;43.40;45.20;42.40;99928;;;;572772;247;23130;-82
2023/07/12 07:01:09;;;;;;;10.30;5.32;;;43.10;44.90;41.60;99928;;;;572302;247;23076;-83
2023/07/12 07:03:36;;;;;;;13.95;4.82;;;42.40;45.40;40.70;99921;;;;573947;247;23067;-83
2023/07/12 07:06:10;;;;;;;8.65;5.35;;;41.60;46.40;40.20;99934;;;;582337;247;23068;-83
2023/07/12 07:08:39;;;;;;;7.78;4.87;;;40.90;47.30;39.60;99928;;;;573266;247;23118;-84
2023/07/12 07:11:10;;;;;;;9.80;5.07;;;40.30;47.80;39.40;99929;;;;581932;247;23072;-84
2023/07/12 07:13:38;;;;;;;7.68;5.25;;;40.00;49.00;40.10;99927;;;;581684;247;24107;-84
2023/07/12 07:16:12;;;;;;;10.40;5.82;;;40.40;48.40;40.60;99919;;;;581856;247;23075;-82
2023/07/12 07:18:38;;;;;;;6.07;4.80;;;40.80;48.50;40.50;99921;;;;562644;252;23166;-83
2023/07/12 07:21:09;;;;;;;10.57;5.40;;;40.90;48.50;40.50;99921;;;;572670;245;23102;-84
2023/07/12 07:23:37;;;;;;;7.82;5.32;;;40.90;48.00;40.30;99911;;;;572476;247;23114;-83
2023/07/12 07:26:10;;;;;;;8.55;4.95;;;40.80;47.80;40.40;99901;;;;572480;247;23111;-82
2023/07/12 07:28:38;;;;;;;10.63;4.75;;;40.80;47.50;39.90;99892;;;;572109;247;23108;-84
2023/07/12 07:31:02;;;;;;;9.32;5.37;;;40.60;47.70;40.00;99891;;;;561456;252;23142;-85
2023/07/12 07:33:30;;;;;;;7.37;5.75;;;40.50;48.50;40.10;99881;;;;571183;247;23064;-84
2023/07/12 07:36:06;;;;;;;7.12;5.12;;;40.40;48.30;40.20;99867;;;;562368;252;23125;-84
2023/07/12 07:38:31;;;;;;;7.93;5.15;;;40.60;47.70;40.20;99866;;;;572527;247;23114;-83
2023/07/12 07:41:01;;;;;;;9.40;5.20;;;40.60;47.80;39.90;99866;;;;572268;247;23107;-84
2023/07/12 07:43:31;;;;;;;6.20;4.97;;;40.50;47.80;40.00;99850;;;;572182;247;23104;-83
2023/07/12 07:46:02;;;;;;;9.88;4.90;;;40.50;48.50;39.80;99847;;;;561705;252;23141;-84
2023/07/12 07:48:26;;;;;;;10.32;5.20;;;40.40;47.60;39.50;99842;;;;581278;247;23098;-83
2023/07/12 07:50:57;;;;;;;7.05;5.18;;;40.10;48.10;39.40;99844;;;;572837;247;23108;-84
2023/07/12 07:53:28;;;;;;;19.17;6.15;;;39.90;48.50;39.40;99833;;;;572235;247;23089;-84
2023/07/12 07:55:53;;;;;;;9.35;5.22;;;39.80;48.80;39.60;99840;;;;564380;249;23086;-83
2023/07/12 07:58:21;;;;;;;7.07;4.50;;;39.90;48.60;39.40;99851;;;;572894;250;23136;-83
2023/07/12 08:00:49;;;;;;;9.88;4.82;;;39.90;49.30;39.40;99850;;;;559909;250;35511;-83
2023/07/12 08:03:17;;;;;;;7.78;4.82;;;39.90;49.20;39.90;99848;;;;574592;246;23082;-84
2023/07/12 08:05:48;;;;;;;6.45;5.00;;;40.20;48.90;40.20;99847;;;;571728;247;23076;-84
2023/07/12 08:08:13;;;;;;;6.05;4.50;;;40.60;48.00;40.70;99848;;;;571971;245;24107;-84
2023/07/12 08:10:45;;;;;;;7.22;4.00;;;40.90;47.70;41.60;99853;;;;561312;252;23117;-84
2023/07/12 08:13:12;;;;;;;7.87;4.18;;;41.60;46.40;42.50;99851;;;;571833;247;23140;-85
2023/07/12 08:15:43;;;;;;;7.07;4.72;;;42.60;45.70;43.50;99841;;;;573415;247;23079;-84
2023/07/12 08:18:10;;;;;;;7.07;4.25;;;43.50;44.60;44.10;99847;;;;574188;247;23072;-84
2023/07/12 08:20:35;;;;;;;4.37;3.97;;;44.30;43.30;44.60;99826;;;;573559;247;23073;-84
2023/07/12 08:23:04;;;;;;;6.47;4.03;;;44.90;42.40;44.90;99826;;;;573113;247;23163;-84
2023/07/12 08:25:31;;;;;;;5.95;3.83;;;45.30;41.40;45.00;99834;;;;573237;247;23081;-84
2023/07/12 08:28:04;;;;;;;6.82;4.12;;;45.40;41.50;44.80;99838;;;;581924;247;23091;-83
2023/07/12 08:30:31;;;;;;;7.47;3.92;;;45.40;41.50;45.20;99842;;;;572764;247;23080;-85
2023/07/12 08:32:58;;;;;;;7.35;3.85;;;45.70;40.10;45.00;99847;;;;562537;251;23153;-84
2023/07/12 08:35:29;;;;;;;9.02;4.35;;;45.60;40.00;44.40;99854;;;;572743;246;23154;-85
2023/07/12 08:37:56;;;;;;;9.35;3.95;;;45.20;40.10;44.30;99829;;;;581001;241;24124;-84
2023/07/12 08:40:24;;;;;;;6.03;3.78;;;44.90;40.00;43.80;99826;;;;572410;247;23082;-83
2023/07/12 08:42:50;;;;;;;10.05;3.90;;;44.50;41.00;43.30;99826;;;;561927;252;24186;-84
2023/07/12 08:45:28;;;;;;;3.67;3.42;;;44.10;41.00;42.50;99822;;;;572626;247;23075;-85
2023/07/12 08:47:58;;;;;;;7.12;3.58;;;42.80;41.50;41.90;99825;;;;569499;247;23081;-84
2023/07/12 08:50:26;;;;;;;4.40;3.25;;;42.80;41.50;41.50;99822;;;;572057;247;23080;-83
2023/07/12 08:52:54;;;;;;;3.42;3.22;;;42.30;41.90;41.40;99812;;;;562005;250;23129;-83
2023/07/12 08:55:25;;;;;;;3.70;3.40;;;41.90;42.60;41.30;99806;;;;572485;247;23053;-83
2023/07/12 08:57:54;;;;;;;5.95;3.62;;;42.40;42.30;42.10;99798;;;;572513;246;23087;-84
2023/07/12 09:00:22;;;;;;;3.80;3.03;;;42.90;41.30;42.50;99788;;;;571370;247;23059;-83
2023/07/12 09:02:54;;;;;;;5.72;3.10;;;42.90;41.20;43.80;99792;;;;561932;252;23148;-84
2023/07/12 09:05:19;;;;;;;4.45;2.83;;;44.00;41.20;44.70;99792;;;;576896;245;23084;-83
2023/07/12 09:07:59;;;;;;;6.35;3.55;;;45.10;38.80;45.20;99783;;;;572153;246;24148;-85
2023/07/12 09:10:33;;;;;;;4.93;2.85;;;46.00;37.70;45.20;99780;;;;569596;247;23081;-84
2023/07/12 09:13:01;;;;;;;5.10;2.95;;;46.00;37.70;45.40;99788;;;;561120;252;24161;-85
2023/07/12 09:15:38;;;;;;;4.47;3.20;;;46.20;37.70;45.60;99790;;;;572065;247;23068;-84
2023/07/12 09:18:09;;;;;;;6.93;2.55;;;46.50;36.80;45.60;99782;;;;570408;247;23119;-84
2023/07/12 09:20:35;;;;;;;9.68;2.90;;;46.90;37.30;46.00;99780;;;;572012;247;23101;-85
2023/07/12 09:23:07;;;;;;;5.07;3.00;;;47.70;37.20;47.10;99779;;;;561655;252;23196;-85
2023/07/12 09:25:38;;;;;;;5.87;3.10;;;49.00;36.80;48.50;99772;;;;572606;246;23084;-83
2023/07/12 09:28:06;;;;;;;3.20;2.90;;;48.90;36.70;49.30;99755;;;;568300;244;35240;-84
2023/07/12 09:30:34;;;;;;;8.50;3.25;;;50.00;34.50;48.50;99756;;;;573625;245;23094;-84
2023/07/12 09:33:03;;;;;;;3.83;2.90;;;49.80;34.40;48.20;99744;;;;573721;247;23126;-83
2023/07/12 09:35:29;;;;;;;5.32;3.35;;;49.50;34.10;47.50;99744;;;;565303;250;23186;-83
2023/07/12 09:37:57;;;;;;;5.97;2.65;;;48.90;34.40;47.30;99754;;;;572250;247;23107;-84
2023/07/12 09:40:26;;;;;;;8.00;3.42;;;48.50;35.60;47.60;99734;;;;572782;247;23080;-83
2023/07/12 09:43:01;;;;;;;2.67;2.53;;;48.50;34.30;47.30;99737;;;;572499;247;23078;-85
2023/07/12 09:45:30;;;;;;;5.32;3.10;;;48.00;34.70;46.60;99731;;;;562089;252;23150;-84
2023/07/12 09:48:01;;;;;;;5.32;2.87;;;47.90;34.60;46.20;99712;;;;581430;241;23130;-85
2023/07/12 09:50:41;;;;;;;5.25;2.67;;;47.40;35.70;47.40;99717;;;;571789;247;23091;-83
2023/07/12 09:53:27;;;;;;;10.63;2.95;;;48.00;35.30;48.20;99717;;;;560940;251;23182;-83
2023/07/12 09:55:55;;;;;;;23.35;3.80;;;49.10;34.90;47.20;99721;;;;561580;251;23177;-85
2023/07/12 09:58:23;;;;;;;9.35;3.50;;;48.60;33.90;44.60;99706;;;;561643;251;23151;-88
2023/07/12 10:00:54;;;;;;;3.50;3.22;;;46.80;35.30;43.60;99702;;;;564896;247;23182;-85
2023/07/12 10:03:24;;;;;;;5.75;3.00;;;45.40;36.50;43.70;99701;;;;560179;251;23170;-84
2023/07/12 10:06:14;;;;;;;5.12;2.92;;;44.80;37.40;42.80;99702;;;;557911;252;23121;-83
2023/07/12 10:08:45;;;;;;;3.70;3.00;;;42.30;38.70;40.70;99693;;;;575120;246;23084;-80
2023/07/12 10:11:23;;;;;;;3.40;3.10;;;42.20;38.60;39.00;99686;;;;574884;246;23076;-84
2023/07/12 10:13:52;;;;;;;3.00;2.80;;;40.60;40.00;37.60;99686;;;;571868;247;23068;-83
2023/07/12 10:16:36;;;;;;;3.92;2.70;;;38.90;41.70;36.00;99687;;;;554430;253;23131;-83
2023/07/12 10:19:00;;;;;;;2.72;2.53;;;37.30;43.00;35.10;99689;;;;564383;250;23187;-83
2023/07/12 10:21:32;;;;;;;3.78;3.40;;;35.00;46.00;34.10;99691;;;;572409;247;24158;-83
2023/07/12 10:23:58;;;;;;;6.18;3.03;;;35.00;45.90;33.30;99690;;;;572663;245;23094;-82
2023/07/12 10:26:27;;;;;;;4.35;2.72;;;34.10;47.50;32.60;99699;;;;577183;246;23074;-82
2023/07/12 10:29:05;;;;;;;3.75;3.10;;;33.30;48.10;31.90;99695;;;;576852;241;24150;-82
2023/07/12 10:31:46;;;;;;;5.10;2.37;;;32.60;49.30;31.50;99701;;;;553996;251;23174;-83
2023/07/12 10:34:26;;;;;;;6.70;3.40;;;32.00;50.50;31.30;99703;;;;573778;248;23153;-83
2023/07/12 10:36:54;;;;;;;2.85;2.58;;;31.70;51.80;31.10;99703;;;;564932;248;23107;-81
2023/07/12 10:39:25;;;;;;;2.90;2.70;;;31.50;52.40;30.80;99702;;;;561437;249;23148;-82
2023/07/12 10:42:03;;;;;;;2.50;2.40;;;30.90;53.30;30.40;99706;;;;551617;252;23170;-83
2023/07/12 10:44:33;;;;;;;3.28;2.97;;;30.80;53.30;30.00;99700;;;;562874;252;23126;-82
2023/07/12 10:47:02;;;;;;;4.85;2.92;;;30.50;53.70;29.60;99701;;;;571740;245;23153;-83
2023/07/12 10:49:48;;;;;;;3.22;2.95;;;30.10;54.70;29.40;99706;;;;577349;246;23095;-83
2023/07/12 10:52:18;;;;;;;6.43;3.25;;;29.80;55.80;29.10;99700;;;;555400;250;23164;-82
2023/07/12 10:55:04;;;;;;;9.75;3.65;;;29.50;56.70;28.70;99697;;;;565018;250;23142;-82
2023/07/12 10:57:44;;;;;;;7.35;2.47;;;29.20;58.20;28.30;99706;;;;555209;254;23149;-80
2023/07/12 11:00:17;;;;;;;8.73;3.40;;;28.70;59.70;28.00;99712;;;;564672;250;24214;-80
2023/07/12 11:02:48;;;;;;;12.80;3.65;;;28.40;61.40;27.80;99713;;;;554507;251;23161;-80
2023/07/12 11:05:40;;;;;;;3.35;3.03;;;28.20;62.90;27.60;99716;;;;564099;250;24149;-79
2023/07/12 11:08:33;;;;;;;9.97;3.73;;;28.00;65.20;26.80;99711;;;;554252;255;23167;-80
2023/07/12 11:11:01;;;;;;;5.67;2.90;;;27.20;68.00;26.30;99702;;;;565846;250;24121;-80
2023/07/12 11:13:32;;;;;;;10.23;3.90;;;26.60;69.40;26.20;99712;;;;554978;255;23187;-81
2023/07/12 11:16:05;;;;;;;9.03;3.80;;;26.60;69.40;26.20;99708;;;;564590;250;23163;-81
2023/07/12 11:18:40;;;;;;;3.43;3.13;;;26.60;70.30;26.30;99706;;;;572822;244;23120;-79